Flagstaff, Arizona
Current Conditions -  °F | °C
As of 8:57 PM on Thursday 18 Dec 2014 (Local Time) from KFLG Reporting Station
Haze Haze  
Wind Chill: 22°   Ceiling: Unl
Heat Index: 22°   Visibility: 2mi
Dew Point: 19°   Wind: 0mph
Humidity: 89%   Direction: NA
Pressure: 30.19"   Gusts: NA
Location:  35.2°N, 111.65°W
Report Text: KFLG 190357Z AUTO 00000KT 2SM BR CLR M06/M07 A3019 RMK AO2 SLP234 I1000 T10561072 TSNO
Loading
Personal Weather Stations






























Interactive Weather Map New forecast layout! Learn more

10-Day Weather Forecast

Advertisements
Track Severe Weather on mobile